Time;durP1;ratioP1;P1;durP2;ratioP2;P2;SDS_P1;SDS_P2;PMS_P1;PMS_P2;Temp;Humidity;BMP_temperature;BMP_pressure;BME280_temperature;BME280_humidity;BME280_pressure;Samples;Min_cycle;Max_cycle;Signal;HPM_P1;HPM_P2
2022/08/28 00:00:06;;;;;;;1.97;1.77;;;24.40;37.50;;;;;;6197809;22;20423;-73
2022/08/28 00:02:32;;;;;;;2.53;1.30;;;24.40;37.50;;;;;;6203197;23;20256;-68
2022/08/28 00:04:58;;;;;;;3.87;1.63;;;24.40;38.30;;;;;;6192209;22;20898;-69
2022/08/28 00:07:24;;;;;;;1.70;1.20;;;24.40;37.50;;;;;;6202394;23;20233;-67
2022/08/28 00:09:49;;;;;;;1.60;1.50;;;24.40;37.50;;;;;;6199647;22;20205;-73
2022/08/28 00:12:15;;;;;;;3.40;1.40;;;24.40;37.50;;;;;;6201829;22;20422;-67
2022/08/28 00:14:41;;;;;;;3.70;1.70;;;24.40;37.60;;;;;;6160015;23;20630;-69
2022/08/28 00:17:07;;;;;;;1.93;1.40;;;24.40;37.50;;;;;;6197343;22;20221;-69
2022/08/28 00:19:33;;;;;;;1.70;1.40;;;24.40;37.50;;;;;;6202383;22;20205;-69
2022/08/28 00:22:00;;;;;;;1.90;1.43;;;24.40;37.60;;;;;;6200388;22;20202;-70
2022/08/28 00:24:25;;;;;;;2.20;1.30;;;24.40;37.50;;;;;;6203389;22;20415;-68
2022/08/28 00:29:35;;;;;;;1.33;1.10;;;24.40;37.50;;;;;;6202295;22;20212;-69
2022/08/28 00:32:01;;;;;;;2.57;1.40;;;24.40;37.50;;;;;;6201819;22;21145;-68
2022/08/28 00:34:27;;;;;;;1.20;1.10;;;24.30;37.40;;;;;;6201339;22;20438;-69
2022/08/28 00:36:53;;;;;;;1.50;1.33;;;24.30;37.40;;;;;;6203257;22;20273;-68
2022/08/28 00:39:19;;;;;;;1.40;1.30;;;24.30;37.40;;;;;;6199252;22;20209;-70
2022/08/28 00:41:44;;;;;;;1.50;1.40;;;24.30;37.40;;;;;;6173070;22;20256;-70
2022/08/28 00:44:16;;;;;;;2.07;1.50;;;24.30;37.40;;;;;;6204684;22;20209;-67
2022/08/28 00:46:44;;;;;;;1.40;1.30;;;24.40;37.50;;;;;;6205185;22;20198;-72
2022/08/28 00:49:11;;;;;;;1.40;1.30;;;24.30;37.40;;;;;;6205646;22;20483;-69
2022/08/28 00:54:23;;;;;;;1.80;1.67;;;24.40;37.60;;;;;;6191924;22;20422;-68
2022/08/28 00:56:52;;;;;;;3.20;1.90;;;24.30;37.40;;;;;;6203627;22;20526;-68
2022/08/28 00:59:21;;;;;;;2.20;1.57;;;24.40;37.50;;;;;;6205381;22;20886;-68
2022/08/28 01:01:47;;;;;;;3.40;1.70;;;24.30;37.40;;;;;;6204436;22;20477;-69
2022/08/28 01:04:18;;;;;;;2.30;1.40;;;24.30;37.50;;;;;;6193261;22;20446;-68
2022/08/28 01:06:47;;;;;;;1.87;1.50;;;24.30;37.40;;;;;;6181380;22;20422;-68
2022/08/28 01:09:14;;;;;;;2.03;1.93;;;24.30;37.40;;;;;;6202782;22;20427;-74
2022/08/28 01:11:42;;;;;;;2.20;1.53;;;24.30;37.40;;;;;;6201038;22;20411;-72
2022/08/28 01:14:11;;;;;;;1.93;1.83;;;24.30;37.40;;;;;;6205741;22;20423;-69
2022/08/28 01:16:37;;;;;;;2.40;2.20;;;24.30;37.50;;;;;;6207197;22;20411;-69
2022/08/28 01:19:08;;;;;;;1.63;1.53;;;24.30;37.40;;;;;;6192843;22;20503;-69
2022/08/28 01:21:44;;;;;;;3.13;2.30;;;24.30;37.40;;;;;;6203323;22;20411;-69
2022/08/28 01:24:14;;;;;;;1.83;1.73;;;24.30;37.40;;;;;;6201356;22;20426;-69
2022/08/28 01:26:41;;;;;;;3.13;1.80;;;24.30;37.40;;;;;;6204775;22;20444;-68
2022/08/28 01:29:07;;;;;;;2.17;1.90;;;24.30;37.40;;;;;;6174409;23;20784;-69
2022/08/28 01:31:34;;;;;;;4.00;1.83;;;24.30;37.30;;;;;;6202918;22;20411;-73
2022/08/28 01:34:01;;;;;;;2.50;2.40;;;24.30;37.20;;;;;;6202127;22;20412;-70
2022/08/28 01:36:28;;;;;;;2.33;1.80;;;24.30;37.20;;;;;;6204509;22;20412;-68
2022/08/28 01:39:12;;;;;;;9.30;2.23;;;24.30;37.10;;;;;;6176641;23;20939;-69
2022/08/28 01:41:40;;;;;;;1.87;1.77;;;24.30;37.10;;;;;;6178970;23;20435;-71
2022/08/28 01:44:07;;;;;;;5.33;1.90;;;24.30;37.00;;;;;;6206890;23;20407;-68
2022/08/28 01:46:33;;;;;;;3.07;1.80;;;24.30;37.00;;;;;;6204653;22;20420;-67
2022/08/28 01:48:59;;;;;;;2.20;2.00;;;24.30;36.90;;;;;;6204067;22;20424;-71
2022/08/28 01:51:25;;;;;;;2.20;1.97;;;24.30;36.80;;;;;;6202781;22;20198;-71
2022/08/28 01:53:51;;;;;;;2.23;2.13;;;24.30;36.80;;;;;;6200150;22;20194;-68
2022/08/28 01:56:17;;;;;;;4.33;2.20;;;24.30;36.80;;;;;;6205326;22;20221;-67
2022/08/28 01:58:43;;;;;;;3.40;2.00;;;24.30;36.80;;;;;;6201844;22;20582;-69
2022/08/28 02:01:15;;;;;;;2.87;2.27;;;24.30;36.80;;;;;;6205378;22;20408;-73
2022/08/28 02:03:41;;;;;;;2.33;1.87;;;24.30;36.70;;;;;;6203143;22;20197;-70
2022/08/28 02:06:08;;;;;;;3.00;2.67;;;24.30;36.70;;;;;;6205351;22;20462;-67
2022/08/28 02:08:35;;;;;;;2.43;2.23;;;24.30;36.70;;;;;;6203679;22;20890;-67
2022/08/28 02:11:01;;;;;;;3.40;2.37;;;24.30;36.60;;;;;;6202717;22;20425;-68
2022/08/28 02:13:27;;;;;;;3.43;2.17;;;24.30;36.60;;;;;;6203092;22;20510;-70
2022/08/28 02:15:52;;;;;;;6.37;2.47;;;24.30;37.40;;;;;;6175166;22;20259;-69
2022/08/28 02:18:19;;;;;;;2.93;2.13;;;24.30;36.50;;;;;;6201052;22;20715;-67
2022/08/28 02:20:45;;;;;;;2.50;2.30;;;24.30;36.60;;;;;;6203641;22;20190;-68
2022/08/28 02:23:11;;;;;;;3.37;2.67;;;24.30;36.60;;;;;;6203440;22;20427;-69
2022/08/28 02:25:36;;;;;;;3.87;2.20;;;24.30;36.50;;;;;;6207101;22;20419;-68
2022/08/28 02:28:02;;;;;;;2.60;2.40;;;24.30;36.50;;;;;;6203947;22;20190;-68
2022/08/28 02:30:28;;;;;;;2.20;2.10;;;24.30;36.50;;;;;;6201831;22;20233;-67
2022/08/28 02:32:54;;;;;;;3.03;2.60;;;24.30;36.50;;;;;;6204506;22;20216;-71
2022/08/28 02:35:21;;;;;;;5.33;2.73;;;24.30;36.40;;;;;;6203715;22;20190;-67
2022/08/28 02:37:48;;;;;;;2.33;2.10;;;24.30;36.40;;;;;;6200495;22;20190;-73
2022/08/28 02:40:15;;;;;;;2.40;2.00;;;24.30;36.40;;;;;;6204309;22;20415;-69
2022/08/28 02:42:41;;;;;;;2.87;2.67;;;24.30;36.30;;;;;;6205235;22;20411;-69
2022/08/28 02:45:10;;;;;;;6.97;3.00;;;24.30;36.40;;;;;;6205271;22;20550;-71
2022/08/28 02:47:41;;;;;;;3.43;2.80;;;24.30;36.40;;;;;;6206837;22;20633;-69
2022/08/28 02:50:08;;;;;;;2.87;2.67;;;24.20;36.30;;;;;;6201224;22;20869;-68
2022/08/28 02:52:36;;;;;;;3.03;2.73;;;24.20;36.40;;;;;;6201447;22;20411;-68
2022/08/28 02:55:02;;;;;;;3.20;2.50;;;24.20;36.30;;;;;;6198283;22;20422;-71
2022/08/28 02:57:29;;;;;;;3.37;2.53;;;24.20;36.30;;;;;;6198183;22;20498;-68
2022/08/28 02:59:55;;;;;;;2.80;2.60;;;24.20;36.20;;;;;;6202200;22;20420;-69
2022/08/28 03:02:21;;;;;;;2.60;2.40;;;24.20;36.20;;;;;;6200119;22;20426;-68
2022/08/28 03:04:47;;;;;;;4.00;2.40;;;24.20;36.20;;;;;;6202350;22;20960;-66
2022/08/28 03:07:14;;;;;;;2.90;2.60;;;24.20;36.20;;;;;;6204376;22;20412;-70
2022/08/28 03:09:42;;;;;;;2.53;2.33;;;24.20;36.10;;;;;;6205085;22;20306;-69
2022/08/28 03:12:09;;;;;;;3.43;2.53;;;24.20;36.20;;;;;;6171435;22;20411;-68
2022/08/28 03:14:36;;;;;;;2.60;2.40;;;24.20;36.10;;;;;;6203785;22;20430;-75
2022/08/28 03:17:01;;;;;;;2.93;2.73;;;24.20;36.20;;;;;;6199500;22;20434;-73
2022/08/28 03:19:27;;;;;;;4.20;2.80;;;24.20;36.10;;;;;;6199403;22;20743;-72
2022/08/28 03:21:53;;;;;;;5.30;3.27;;;24.20;36.10;;;;;;6200858;22;20507;-68
2022/08/28 03:24:19;;;;;;;4.20;2.60;;;24.20;36.10;;;;;;6202684;22;20304;-68
2022/08/28 03:26:45;;;;;;;5.80;3.10;;;24.20;36.10;;;;;;6204261;22;21129;-68
2022/08/28 03:29:11;;;;;;;5.60;2.77;;;24.20;36.10;;;;;;6202616;22;20206;-69
2022/08/28 03:31:37;;;;;;;6.60;2.80;;;24.20;36.10;;;;;;6203764;22;20904;-68
2022/08/28 03:34:04;;;;;;;3.43;3.10;;;24.20;36.10;;;;;;6175969;23;20571;-68
2022/08/28 03:36:31;;;;;;;2.50;2.30;;;24.20;36.10;;;;;;6203382;22;20426;-70
2022/08/28 03:38:58;;;;;;;3.00;2.70;;;24.20;36.10;;;;;;6202037;22;20442;-73
2022/08/28 03:41:27;;;;;;;5.00;2.50;;;24.20;36.10;;;;;;6200680;22;20423;-67
2022/08/28 03:43:52;;;;;;;5.50;2.43;;;24.10;36.00;;;;;;6200120;22;20424;-67
2022/08/28 03:46:22;;;;;;;3.30;2.70;;;24.20;36.10;;;;;;6199011;22;20420;-69
2022/08/28 03:48:49;;;;;;;3.77;2.80;;;24.20;36.10;;;;;;6194695;22;20584;-68
2022/08/28 03:51:20;;;;;;;2.97;2.77;;;24.20;36.00;;;;;;6175065;22;20404;-69
2022/08/28 03:53:47;;;;;;;3.50;2.33;;;24.20;36.10;;;;;;6204086;22;20416;-69
2022/08/28 03:56:20;;;;;;;4.83;3.00;;;24.20;36.10;;;;;;6207129;22;20430;-70
2022/08/28 03:58:50;;;;;;;3.10;2.47;;;24.20;36.10;;;;;;6204716;22;20419;-70
2022/08/28 04:01:17;;;;;;;2.43;2.23;;;24.10;35.90;;;;;;6203561;22;20742;-68
2022/08/28 04:03:44;;;;;;;4.33;2.70;;;24.10;35.90;;;;;;6201620;22;20474;-72
2022/08/28 04:06:10;;;;;;;4.10;2.40;;;24.20;36.00;;;;;;6205176;22;20422;-67
2022/08/28 04:08:37;;;;;;;6.13;3.03;;;24.20;36.00;;;;;;6205017;22;20710;-73
2022/08/28 04:11:03;;;;;;;3.50;2.20;;;24.10;35.80;;;;;;6199718;22;20419;-71
2022/08/28 04:13:29;;;;;;;3.03;2.40;;;24.10;35.80;;;;;;6202250;22;20495;-68
2022/08/28 04:16:09;;;;;;;2.30;2.03;;;24.10;35.80;;;;;;6201801;22;20470;-68
2022/08/28 04:18:35;;;;;;;5.40;2.63;;;24.10;35.80;;;;;;6194656;22;20383;-69
2022/08/28 04:21:04;;;;;;;3.33;2.67;;;24.10;35.90;;;;;;6202395;22;20426;-68
2022/08/28 04:23:30;;;;;;;4.10;2.53;;;24.10;35.90;;;;;;6202960;22;20495;-74
2022/08/28 04:25:56;;;;;;;2.40;2.20;;;24.10;35.90;;;;;;6202603;22;20454;-69
2022/08/28 04:28:24;;;;;;;3.10;2.10;;;24.10;35.90;;;;;;6197852;22;20217;-70
2022/08/28 04:30:55;;;;;;;2.50;2.03;;;24.10;35.80;;;;;;6201930;22;20411;-67
2022/08/28 04:33:21;;;;;;;2.63;2.07;;;24.10;35.90;;;;;;6200241;22;20420;-69
2022/08/28 04:35:48;;;;;;;2.30;1.83;;;24.10;35.80;;;;;;6203480;22;20639;-68
2022/08/28 04:38:13;;;;;;;3.20;2.33;;;24.10;35.80;;;;;;6203298;22;20430;-68
2022/08/28 04:40:40;;;;;;;2.33;2.13;;;24.10;35.80;;;;;;6192294;22;20747;-68
2022/08/28 04:43:06;;;;;;;3.57;2.00;;;24.10;35.90;;;;;;6202760;22;20198;-67
2022/08/28 04:45:31;;;;;;;6.93;2.30;;;24.10;35.90;;;;;;6200972;22;20411;-67
2022/08/28 04:47:57;;;;;;;5.37;2.67;;;24.10;35.90;;;;;;6205065;22;20411;-68
2022/08/28 04:50:22;;;;;;;4.53;2.50;;;24.10;36.00;;;;;;6203103;22;20213;-67
2022/08/28 04:52:50;;;;;;;4.30;2.00;;;24.10;36.00;;;;;;6204189;22;20194;-72
2022/08/28 04:55:15;;;;;;;2.43;2.23;;;24.10;36.00;;;;;;6205007;22;20605;-69
2022/08/28 04:57:41;;;;;;;2.50;2.30;;;24.10;36.00;;;;;;6204664;22;20473;-70
2022/08/28 05:00:09;;;;;;;6.70;2.50;;;24.10;36.00;;;;;;6204059;22;20301;-73
2022/08/28 05:02:34;;;;;;;2.40;2.20;;;24.10;36.00;;;;;;6204832;22;20228;-68
2022/08/28 05:05:00;;;;;;;2.23;2.00;;;24.10;36.10;;;;;;6202515;22;20757;-70
2022/08/28 05:07:25;;;;;;;2.37;2.17;;;24.10;36.00;;;;;;6206323;22;20198;-67
2022/08/28 05:09:53;;;;;;;3.23;2.27;;;24.20;36.10;;;;;;6202383;22;20285;-68
2022/08/28 05:12:18;;;;;;;4.33;1.93;;;24.20;36.10;;;;;;6196920;22;20191;-71
2022/08/28 05:14:44;;;;;;;5.80;2.70;;;24.20;36.10;;;;;;6199919;22;20412;-67
2022/08/28 05:17:13;;;;;;;2.97;2.00;;;24.20;36.10;;;;;;6205255;22;20218;-68
2022/08/28 05:19:39;;;;;;;2.10;1.90;;;24.20;36.10;;;;;;6203133;22;20218;-67
2022/08/28 05:22:04;;;;;;;2.43;1.83;;;24.20;36.10;;;;;;6206073;22;20412;-66
2022/08/28 05:24:30;;;;;;;2.80;1.90;;;24.20;36.10;;;;;;6199113;22;20719;-73
2022/08/28 05:26:56;;;;;;;2.53;2.30;;;24.20;36.80;;;;;;6204348;22;20221;-68
2022/08/28 05:29:21;;;;;;;2.37;2.10;;;24.20;36.10;;;;;;6200097;22;20240;-68
2022/08/28 05:31:47;;;;;;;3.00;2.30;;;24.20;36.00;;;;;;6198469;22;20281;-72
2022/08/28 05:34:14;;;;;;;2.60;2.17;;;24.20;36.10;;;;;;6201180;22;20194;-69
2022/08/28 05:36:40;;;;;;;2.67;2.20;;;24.20;36.00;;;;;;6199888;22;20194;-69
2022/08/28 05:39:08;;;;;;;3.53;2.47;;;24.20;36.10;;;;;;6202498;22;20428;-70
2022/08/28 05:41:35;;;;;;;6.10;2.60;;;24.20;36.00;;;;;;6179553;23;20876;-68
2022/08/28 05:44:04;;;;;;;2.53;1.93;;;24.20;36.00;;;;;;6169929;22;20420;-69
2022/08/28 05:46:30;;;;;;;4.60;2.53;;;24.20;36.80;;;;;;6171160;22;20412;-67
2022/08/28 05:48:57;;;;;;;2.37;2.17;;;24.20;36.00;;;;;;6172037;22;20455;-67
2022/08/28 05:51:27;;;;;;;2.60;1.93;;;24.20;36.10;;;;;;6173099;22;20452;-68
2022/08/28 05:53:53;;;;;;;3.27;2.23;;;24.20;36.10;;;;;;6170454;22;20420;-67
2022/08/28 05:56:22;;;;;;;3.00;2.40;;;24.20;36.10;;;;;;6173180;22;20801;-66
2022/08/28 05:58:48;;;;;;;4.23;2.40;;;24.20;36.10;;;;;;6172780;22;20198;-67
2022/08/28 06:01:20;;;;;;;2.50;2.30;;;24.20;36.10;;;;;;6168041;22;20974;-67
2022/08/28 06:03:53;;;;;;;2.77;2.57;;;24.20;36.30;;;;;;6174620;23;20218;-67
2022/08/28 06:06:20;;;;;;;2.50;2.30;;;24.20;36.50;;;;;;6172086;22;20408;-67
2022/08/28 06:08:46;;;;;;;2.20;2.10;;;24.20;36.70;;;;;;6154737;23;20444;-67
2022/08/28 06:11:12;;;;;;;2.67;2.40;;;24.20;37.10;;;;;;6207009;22;20415;-64
2022/08/28 06:13:38;;;;;;;4.23;2.73;;;24.20;37.30;;;;;;6205189;22;20217;-72
2022/08/28 06:16:04;;;;;;;3.27;2.60;;;24.20;37.30;;;;;;6170990;23;20200;-68
2022/08/28 06:18:30;;;;;;;4.30;3.33;;;24.20;37.30;;;;;;6173009;23;20234;-70
2022/08/28 06:21:01;;;;;;;2.63;2.43;;;24.20;37.30;;;;;;6173303;23;20420;-66
2022/08/28 06:23:27;;;;;;;3.77;2.60;;;24.20;37.30;;;;;;6158446;23;20724;-69
2022/08/28 06:25:53;;;;;;;2.17;1.97;;;24.20;37.30;;;;;;6174542;22;20891;-71
2022/08/28 06:28:23;;;;;;;3.60;2.27;;;24.20;37.30;;;;;;6170641;22;20413;-68
2022/08/28 06:30:50;;;;;;;3.00;2.80;;;24.20;37.30;;;;;;6151240;23;20210;-68
2022/08/28 06:33:17;;;;;;;4.27;2.77;;;24.20;37.40;;;;;;6151821;23;20419;-67
2022/08/28 06:35:45;;;;;;;4.43;2.60;;;24.20;37.40;;;;;;6198892;22;20451;-68
2022/08/28 06:38:11;;;;;;;2.83;2.37;;;24.30;37.50;;;;;;6207018;22;20789;-67
2022/08/28 06:40:48;;;;;;;2.90;2.70;;;24.20;37.30;;;;;;6201612;22;20554;-71
2022/08/28 06:43:15;;;;;;;3.00;2.80;;;24.20;37.40;;;;;;6182017;22;20438;-70
2022/08/28 06:45:45;;;;;;;2.37;2.17;;;24.20;37.30;;;;;;6203920;22;20420;-67
2022/08/28 06:48:16;;;;;;;3.20;2.40;;;24.20;37.30;;;;;;6193943;22;20458;-67
2022/08/28 06:50:48;;;;;;;3.27;2.27;;;24.20;37.30;;;;;;6200594;22;20910;-70
2022/08/28 06:53:15;;;;;;;3.77;3.27;;;24.30;37.40;;;;;;6202749;22;20547;-67
2022/08/28 06:55:41;;;;;;;4.60;2.40;;;24.20;37.40;;;;;;6197103;22;20423;-68
2022/08/28 06:58:07;;;;;;;3.23;2.40;;;24.20;37.40;;;;;;6203040;22;20430;-69
2022/08/28 07:00:34;;;;;;;2.53;2.30;;;24.30;37.60;;;;;;6181122;22;20190;-69
2022/08/28 07:03:01;;;;;;;2.43;2.20;;;24.20;37.50;;;;;;6198575;22;20606;-72
2022/08/28 07:05:27;;;;;;;2.70;2.47;;;24.20;37.60;;;;;;6198147;22;20419;-67
2022/08/28 07:07:54;;;;;;;3.53;2.70;;;24.30;37.80;;;;;;6201297;22;20981;-76
2022/08/28 07:10:19;;;;;;;2.50;2.30;;;24.20;37.70;;;;;;6203428;22;20672;-68
2022/08/28 07:12:45;;;;;;;2.60;2.40;;;24.30;37.90;;;;;;6202529;22;20416;-68
2022/08/28 07:15:11;;;;;;;2.80;2.20;;;24.30;37.90;;;;;;6200913;22;20214;-74
2022/08/28 07:17:37;;;;;;;3.37;3.07;;;24.30;38.00;;;;;;6205500;22;20252;-68
2022/08/28 07:20:05;;;;;;;2.57;2.37;;;24.30;38.00;;;;;;6203035;22;20296;-67
2022/08/28 07:22:30;;;;;;;3.37;2.10;;;24.30;38.00;;;;;;6204357;22;20407;-69
2022/08/28 07:24:56;;;;;;;2.17;2.07;;;24.30;38.00;;;;;;6200238;22;20831;-67
2022/08/28 07:27:23;;;;;;;2.60;2.40;;;24.30;38.00;;;;;;6194557;22;20201;-68
2022/08/28 07:29:51;;;;;;;2.10;2.00;;;24.30;38.00;;;;;;6202105;22;20427;-67
2022/08/28 07:32:17;;;;;;;3.23;2.10;;;24.30;38.00;;;;;;6195607;22;20420;-66
2022/08/28 07:34:43;;;;;;;2.33;2.13;;;24.30;38.10;;;;;;6194501;22;20482;-67
2022/08/28 07:37:08;;;;;;;4.73;2.20;;;24.30;38.10;;;;;;6197586;22;20425;-70
2022/08/28 07:39:34;;;;;;;3.80;2.17;;;24.30;38.20;;;;;;6197671;22;20243;-66
2022/08/28 07:42:00;;;;;;;2.27;2.00;;;24.30;38.20;;;;;;6197861;22;20190;-65
2022/08/28 07:47:10;;;;;;;2.50;2.10;;;24.30;38.10;;;;;;6178683;22;20422;-61
2022/08/28 07:49:37;;;;;;;2.70;2.50;;;24.30;38.10;;;;;;6198697;22;20432;-66
2022/08/28 07:52:05;;;;;;;4.00;2.23;;;24.30;38.20;;;;;;6178478;23;20199;-69
2022/08/28 07:54:31;;;;;;;3.10;2.70;;;24.30;38.30;;;;;;6195933;22;20415;-70
2022/08/28 07:56:57;;;;;;;3.80;2.80;;;24.30;38.20;;;;;;6196350;22;20469;-65
2022/08/28 07:59:23;;;;;;;2.83;2.50;;;24.30;38.30;;;;;;6198646;22;20787;-65
2022/08/28 08:01:50;;;;;;;2.57;2.37;;;24.30;38.30;;;;;;6200709;22;20200;-68
2022/08/28 08:04:18;;;;;;;2.70;2.10;;;24.30;38.30;;;;;;6201095;22;20269;-66
2022/08/28 08:06:44;;;;;;;2.70;2.50;;;24.30;38.30;;;;;;6198244;22;20438;-66
2022/08/28 08:09:13;;;;;;;2.17;2.03;;;24.30;38.50;;;;;;6198969;22;21154;-66
2022/08/28 08:11:39;;;;;;;3.60;2.50;;;24.30;38.40;;;;;;6199309;22;20221;-66
2022/08/28 08:14:06;;;;;;;2.50;2.30;;;24.30;38.50;;;;;;6195539;22;20439;-67
2022/08/28 08:16:34;;;;;;;2.67;2.23;;;24.30;38.50;;;;;;6200158;22;20481;-66
2022/08/28 08:19:00;;;;;;;2.63;2.17;;;24.30;38.50;;;;;;6202464;22;20800;-65
2022/08/28 08:21:27;;;;;;;2.47;2.30;;;24.30;38.50;;;;;;6197972;22;20476;-66
2022/08/28 08:23:54;;;;;;;2.83;2.00;;;24.30;38.60;;;;;;6196997;22;20436;-65
2022/08/28 08:26:23;;;;;;;2.87;1.97;;;24.30;38.60;;;;;;6199081;22;20474;-65
2022/08/28 08:28:50;;;;;;;3.13;2.23;;;24.30;38.60;;;;;;6197766;22;20482;-67
2022/08/28 08:31:23;;;;;;;2.10;1.90;;;24.30;38.50;;;;;;6200665;22;20422;-66
2022/08/28 08:33:53;;;;;;;2.37;2.17;;;24.30;38.60;;;;;;6197566;22;20469;-65
2022/08/28 08:36:22;;;;;;;2.87;2.40;;;24.30;38.60;;;;;;6196911;22;20420;-66
2022/08/28 08:38:48;;;;;;;2.90;1.93;;;24.30;38.50;;;;;;6197197;22;20424;-66
2022/08/28 08:41:18;;;;;;;2.03;1.93;;;24.30;38.50;;;;;;6197235;22;20451;-66
2022/08/28 08:43:59;;;;;;;2.60;1.87;;;24.30;38.50;;;;;;6196377;22;20420;-65
2022/08/28 08:46:42;;;;;;;2.40;2.20;;;24.30;38.50;;;;;;6200397;22;20419;-65
2022/08/28 08:49:20;;;;;;;2.23;2.07;;;24.30;38.50;;;;;;6171374;22;20432;-68
2022/08/28 08:51:53;;;;;;;2.00;1.90;;;24.30;38.50;;;;;;6198425;22;20444;-66
2022/08/28 08:54:20;;;;;;;2.87;2.20;;;24.30;38.50;;;;;;6197657;22;20941;-67
2022/08/28 08:56:47;;;;;;;1.90;1.80;;;24.30;39.30;;;;;;6195316;22;20744;-67
2022/08/28 08:59:17;;;;;;;2.13;1.80;;;24.30;38.50;;;;;;6198199;22;20415;-65
2022/08/28 09:01:46;;;;;;;2.10;2.00;;;24.30;38.50;;;;;;6198772;22;20735;-68
2022/08/28 09:04:38;;;;;;;2.00;1.90;;;24.30;38.50;;;;;;6201667;22;20485;-67
2022/08/28 09:07:14;;;;;;;2.40;2.20;;;24.30;38.50;;;;;;6170971;23;20727;-65
2022/08/28 09:09:47;;;;;;;3.80;2.10;;;24.30;38.50;;;;;;6190590;23;20424;-66
2022/08/28 09:12:14;;;;;;;2.20;2.00;;;24.30;38.50;;;;;;6197491;22;20420;-66
2022/08/28 09:15:07;;;;;;;2.30;2.20;;;24.30;38.60;;;;;;6200717;22;20415;-67
2022/08/28 09:17:41;;;;;;;3.07;2.10;;;24.30;38.50;;;;;;6198974;22;20474;-67
2022/08/28 09:20:09;;;;;;;5.20;2.43;;;24.30;38.50;;;;;;6171736;23;20489;-65
2022/08/28 09:22:36;;;;;;;2.87;2.57;;;24.30;38.60;;;;;;6199952;22;20501;-66
2022/08/28 09:25:03;;;;;;;2.37;2.23;;;24.30;38.60;;;;;;6200069;22;20489;-66
2022/08/28 09:27:31;;;;;;;2.50;1.83;;;24.30;38.60;;;;;;6199323;22;20422;-65
2022/08/28 09:30:09;;;;;;;3.47;2.03;;;24.30;39.40;;;;;;6198269;22;20431;-66
2022/08/28 09:32:42;;;;;;;2.63;2.30;;;24.30;38.60;;;;;;6181250;22;20411;-65
2022/08/28 09:35:13;;;;;;;2.23;2.03;;;24.30;38.60;;;;;;6187737;22;20420;-66
2022/08/28 09:37:41;;;;;;;3.33;2.53;;;24.30;38.60;;;;;;6184860;23;20778;-65
2022/08/28 09:40:18;;;;;;;2.00;1.80;;;24.30;38.60;;;;;;6201284;22;20419;-65
2022/08/28 09:46:04;;;;;;;2.67;2.47;;;24.30;38.70;;;;;;6195071;22;20418;-65
2022/08/28 09:48:36;;;;;;;2.93;2.53;;;24.30;38.70;;;;;;6199706;22;20431;-67
2022/08/28 09:51:25;;;;;;;2.17;2.07;;;24.30;38.70;;;;;;6197783;22;20509;-65
2022/08/28 09:53:51;;;;;;;2.60;2.40;;;24.30;38.70;;;;;;6196916;22;21255;-65
2022/08/28 09:56:32;;;;;;;2.50;2.30;;;24.30;38.70;;;;;;6198344;22;20503;-66
2022/08/28 09:59:12;;;;;;;2.30;2.10;;;24.20;38.60;;;;;;6197160;22;20212;-60
2022/08/28 10:01:40;;;;;;;2.00;1.90;;;24.30;38.70;;;;;;6197450;22;20416;-64
2022/08/28 10:04:33;;;;;;;1.90;1.80;;;24.20;38.70;;;;;;6188308;23;20423;-64
2022/08/28 10:07:32;;;;;;;2.20;2.00;;;24.30;38.70;;;;;;6196733;22;20491;-64
2022/08/28 10:10:32;;;;;;;2.20;2.00;;;24.30;38.70;;;;;;6175616;23;20497;-64
2022/08/28 10:13:19;;;;;;;2.40;2.13;;;24.30;38.80;;;;;;6195734;22;20418;-65
2022/08/28 10:16:03;;;;;;;2.37;2.17;;;24.20;38.70;;;;;;6195215;22;20466;-68
2022/08/28 10:18:54;;;;;;;5.43;2.40;;;24.30;38.90;;;;;;6198241;22;21032;-64
2022/08/28 10:21:38;;;;;;;2.63;2.43;;;24.30;38.90;;;;;;6189948;22;20930;-64
2022/08/28 10:24:51;;;;;;;7.70;2.53;;;24.30;38.90;;;;;;6169884;23;21057;-65
2022/08/28 10:27:31;;;;;;;5.30;2.37;;;24.30;38.90;;;;;;6140585;23;20425;-64
2022/08/28 10:30:09;;;;;;;4.33;2.70;;;24.30;39.00;;;;;;6183739;23;20419;-67
2022/08/28 10:32:34;;;;;;;4.37;2.23;;;24.30;39.00;;;;;;6183256;23;20427;-64
2022/08/28 10:35:43;;;;;;;2.57;2.37;;;24.30;38.80;;;;;;6184513;23;21204;-64
2022/08/28 10:38:16;;;;;;;3.93;2.33;;;24.30;38.80;;;;;;6151111;23;20198;-65
2022/08/28 10:40:53;;;;;;;3.67;2.33;;;24.30;38.70;;;;;;6161417;23;20442;-62
2022/08/28 10:43:32;;;;;;;5.93;2.40;;;24.30;38.60;;;;;;6194692;23;20473;-63
2022/08/28 10:46:03;;;;;;;10.87;2.83;;;24.30;38.50;;;;;;6199365;22;20952;-66
2022/08/28 10:48:38;;;;;;;6.87;2.83;;;24.30;38.60;;;;;;6168845;23;20443;-66
2022/08/28 10:51:16;;;;;;;4.17;2.27;;;24.30;38.60;;;;;;6198203;22;20427;-65
2022/08/28 10:53:52;;;;;;;4.67;3.00;;;24.30;38.70;;;;;;6194132;22;20548;-62
2022/08/28 10:56:22;;;;;;;4.10;3.13;;;24.30;38.70;;;;;;6189749;22;20485;-62
2022/08/28 10:58:51;;;;;;;5.53;2.57;;;24.30;38.70;;;;;;6178664;22;20474;-66
2022/08/28 11:01:31;;;;;;;4.27;2.53;;;24.40;39.60;;;;;;6198257;22;20466;-61
2022/08/28 11:04:00;;;;;;;3.13;2.87;;;24.40;38.90;;;;;;6186592;22;20414;-63
2022/08/28 11:06:42;;;;;;;8.23;3.10;;;24.40;38.90;;;;;;6194649;22;20905;-62
2022/08/28 11:09:36;;;;;;;4.40;2.70;;;24.40;38.90;;;;;;6197613;22;20443;-61
2022/08/28 11:12:05;;;;;;;5.60;3.37;;;24.40;38.90;;;;;;6168649;22;20419;-66
2022/08/28 11:14:37;;;;;;;3.77;2.37;;;24.40;38.90;;;;;;6196773;22;20427;-65
2022/08/28 11:17:07;;;;;;;9.03;2.70;;;24.40;38.80;;;;;;6199436;22;20420;-61
2022/08/28 11:19:40;;;;;;;5.00;2.57;;;24.40;38.80;;;;;;6205669;22;20542;-61
2022/08/28 11:22:20;;;;;;;5.30;2.40;;;24.40;38.80;;;;;;6203479;22;20427;-67
2022/08/28 11:25:00;;;;;;;2.50;2.13;;;24.40;38.70;;;;;;6201437;22;20579;-63
2022/08/28 11:27:35;;;;;;;4.33;2.60;;;24.40;38.70;;;;;;6175164;23;20424;-67
2022/08/28 11:30:06;;;;;;;2.63;2.43;;;24.40;38.60;;;;;;6196496;22;20431;-63
2022/08/28 11:32:50;;;;;;;3.10;2.50;;;24.40;38.50;;;;;;6200560;22;20475;-61
2022/08/28 11:35:34;;;;;;;3.97;2.70;;;24.40;38.50;;;;;;6173691;23;20420;-62
2022/08/28 11:38:01;;;;;;;3.50;2.30;;;24.40;38.40;;;;;;6179961;23;20412;-62
2022/08/28 11:40:30;;;;;;;2.20;2.10;;;24.40;38.30;;;;;;6203388;22;20483;-63
2022/08/28 11:43:14;;;;;;;2.43;2.27;;;24.40;38.30;;;;;;6204225;22;20468;-62
2022/08/28 11:45:45;;;;;;;2.43;2.23;;;24.40;38.20;;;;;;6200899;22;20423;-61
2022/08/28 11:48:32;;;;;;;2.00;1.90;;;24.40;38.10;;;;;;6201977;22;20426;-62
2022/08/28 11:51:03;;;;;;;2.53;2.03;;;24.40;38.00;;;;;;6168670;23;20428;-65
2022/08/28 11:53:47;;;;;;;2.33;2.13;;;24.40;37.90;;;;;;6192245;22;20420;-66
2022/08/28 11:56:24;;;;;;;4.00;2.10;;;24.30;37.80;;;;;;6201076;22;20447;-65
2022/08/28 11:59:09;;;;;;;2.10;1.90;;;24.30;37.80;;;;;;6191693;23;20478;-61
2022/08/28 12:01:36;;;;;;;4.23;2.57;;;24.40;37.60;;;;;;6169000;23;20420;-60
2022/08/28 12:04:12;;;;;;;2.63;2.43;;;24.40;37.60;;;;;;6202885;22;20892;-61
2022/08/28 12:06:44;;;;;;;2.30;2.10;;;24.30;37.50;;;;;;6197572;22;20421;-61
2022/08/28 12:09:35;;;;;;;2.93;2.67;;;24.30;37.40;;;;;;6200743;22;20436;-62
2022/08/28 12:12:21;;;;;;;2.37;2.27;;;24.30;37.40;;;;;;6202707;22;20426;-60
2022/08/28 12:14:47;;;;;;;2.17;1.80;;;24.30;37.40;;;;;;6200244;22;20471;-60
2022/08/28 12:17:27;;;;;;;3.33;3.03;;;24.30;37.40;;;;;;6203065;22;20489;-62
2022/08/28 12:20:19;;;;;;;2.27;2.07;;;24.30;37.40;;;;;;6200242;22;20325;-60
2022/08/28 12:22:51;;;;;;;4.87;2.20;;;24.30;37.40;;;;;;6198993;22;20422;-61
2022/08/28 12:25:35;;;;;;;2.60;2.40;;;24.30;37.40;;;;;;6201377;22;21068;-65
2022/08/28 12:28:43;;;;;;;2.43;2.33;;;24.30;38.20;;;;;;6199614;22;20514;-62
2022/08/28 12:34:29;;;;;;;2.33;2.13;;;24.30;38.20;;;;;;6176346;22;20478;-66
2022/08/28 12:37:00;;;;;;;2.43;2.30;;;24.30;37.40;;;;;;6190597;22;20426;-61
2022/08/28 12:39:29;;;;;;;2.20;2.00;;;24.30;37.40;;;;;;6202882;22;20427;-64
2022/08/28 12:41:56;;;;;;;2.50;1.93;;;24.30;37.50;;;;;;6199500;22;20920;-62
2022/08/28 12:44:24;;;;;;;3.10;2.10;;;24.30;37.40;;;;;;6199147;22;20758;-61
2022/08/28 12:46:52;;;;;;;2.07;1.97;;;24.30;37.40;;;;;;6197734;22;20798;-62
2022/08/28 12:49:35;;;;;;;2.63;2.43;;;24.30;37.40;;;;;;6186978;22;20435;-67
2022/08/28 12:52:16;;;;;;;2.23;2.03;;;24.30;37.40;;;;;;6194871;22;20419;-66
2022/08/28 12:54:43;;;;;;;2.73;2.00;;;24.30;37.50;;;;;;6197788;22;20481;-62
2022/08/28 12:57:18;;;;;;;2.40;2.10;;;24.30;37.40;;;;;;6202193;22;20959;-62
2022/08/28 12:59:49;;;;;;;2.60;1.83;;;24.30;37.40;;;;;;6191085;22;20410;-60
2022/08/28 13:02:25;;;;;;;2.40;2.00;;;24.30;37.40;;;;;;6197170;22;20411;-61
2022/08/28 13:05:08;;;;;;;2.20;2.00;;;24.30;37.40;;;;;;6185910;22;20411;-64
2022/08/28 13:07:39;;;;;;;3.53;2.53;;;24.30;37.40;;;;;;6196900;22;20732;-63
2022/08/28 13:10:28;;;;;;;2.30;2.10;;;24.30;37.50;;;;;;6201646;22;20554;-63
2022/08/28 13:13:05;;;;;;;2.57;2.30;;;24.30;37.40;;;;;;6142216;23;20481;-63
2022/08/28 13:15:48;;;;;;;3.07;2.10;;;24.30;37.40;;;;;;6173715;23;20419;-62
2022/08/28 13:18:35;;;;;;;2.33;2.13;;;24.30;37.40;;;;;;6169624;23;21013;-63